sensor_id;sensor_type;location;lat;lon;timestamp;P1;durP1;ratioP1;P2;durP2;ratioP2
77152;SDS011;66124;51.146;17.072;2023-04-01T00:02:05;4.30;;;1.90;;
77152;SDS011;66124;51.146;17.072;2023-04-01T00:04:34;2.90;;;1.80;;
77152;SDS011;66124;51.146;17.072;2023-04-01T00:07:04;3.30;;;1.90;;
77152;SDS011;66124;51.146;17.072;2023-04-01T00:09:33;3.00;;;2.10;;
77152;SDS011;66124;51.146;17.072;2023-04-01T00:12:03;2.80;;;2.00;;
77152;SDS011;66124;51.146;17.072;2023-04-01T00:14:32;4.60;;;2.00;;
77152;SDS011;66124;51.146;17.072;2023-04-01T00:17:02;4.40;;;2.30;;
77152;SDS011;66124;51.146;17.072;2023-04-01T00:19:31;2.90;;;2.30;;
77152;SDS011;66124;51.146;17.072;2023-04-01T00:22:00;3.40;;;2.50;;
77152;SDS011;66124;51.146;17.072;2023-04-01T00:24:30;4.80;;;2.60;;
77152;SDS011;66124;51.146;17.072;2023-04-01T00:26:59;4.60;;;2.80;;
77152;SDS011;66124;51.146;17.072;2023-04-01T00:29:28;4.70;;;2.90;;
77152;SDS011;66124;51.146;17.072;2023-04-01T00:31:58;4.00;;;2.90;;
77152;SDS011;66124;51.146;17.072;2023-04-01T00:44:33;5.80;;;3.20;;
77152;SDS011;66124;51.146;17.072;2023-04-01T00:47:04;5.20;;;2.80;;
77152;SDS011;66124;51.146;17.072;2023-04-01T00:49:35;3.90;;;2.20;;
77152;SDS011;66124;51.146;17.072;2023-04-01T00:52:07;4.20;;;3.00;;
77152;SDS011;66124;51.146;17.072;2023-04-01T00:54:38;4.60;;;3.00;;
77152;SDS011;66124;51.146;17.072;2023-04-01T00:57:12;5.10;;;3.50;;
77152;SDS011;66124;51.146;17.072;2023-04-01T00:59:45;5.20;;;3.10;;
77152;SDS011;66124;51.146;17.072;2023-04-01T01:02:16;5.60;;;3.20;;
77152;SDS011;66124;51.146;17.072;2023-04-01T01:04:46;5.80;;;3.30;;
77152;SDS011;66124;51.146;17.072;2023-04-01T01:07:19;4.40;;;3.30;;
77152;SDS011;66124;51.146;17.072;2023-04-01T01:09:56;5.80;;;3.80;;
77152;SDS011;66124;51.146;17.072;2023-04-01T01:12:35;5.20;;;3.40;;
77152;SDS011;66124;51.146;17.072;2023-04-01T01:15:14;5.60;;;3.60;;
77152;SDS011;66124;51.146;17.072;2023-04-01T01:17:50;4.40;;;3.40;;
77152;SDS011;66124;51.146;17.072;2023-04-01T01:26:55;6.20;;;4.30;;
77152;SDS011;66124;51.146;17.072;2023-04-01T01:32:41;8.00;;;4.00;;
77152;SDS011;66124;51.146;17.072;2023-04-01T01:35:23;5.20;;;3.70;;
77152;SDS011;66124;51.146;17.072;2023-04-01T01:38:00;5.80;;;3.70;;
77152;SDS011;66124;51.146;17.072;2023-04-01T01:40:33;5.70;;;3.30;;
77152;SDS011;66124;51.146;17.072;2023-04-01T01:43:06;4.80;;;3.40;;
77152;SDS011;66124;51.146;17.072;2023-04-01T01:45:39;5.60;;;4.00;;
77152;SDS011;66124;51.146;17.072;2023-04-01T01:48:12;6.30;;;4.90;;
77152;SDS011;66124;51.146;17.072;2023-04-01T01:50:43;6.40;;;4.20;;
77152;SDS011;66124;51.146;17.072;2023-04-01T01:53:14;3.30;;;2.80;;
77152;SDS011;66124;51.146;17.072;2023-04-01T02:04:22;4.90;;;3.70;;
77152;SDS011;66124;51.146;17.072;2023-04-01T02:06:55;4.90;;;2.80;;
77152;SDS011;66124;51.146;17.072;2023-04-01T02:09:27;5.00;;;3.50;;
77152;SDS011;66124;51.146;17.072;2023-04-01T02:11:57;4.40;;;2.90;;
77152;SDS011;66124;51.146;17.072;2023-04-01T02:14:29;3.90;;;2.60;;
77152;SDS011;66124;51.146;17.072;2023-04-01T02:17:04;3.70;;;3.10;;
77152;SDS011;66124;51.146;17.072;2023-04-01T02:19:37;5.70;;;3.10;;
77152;SDS011;66124;51.146;17.072;2023-04-01T02:22:12;4.80;;;3.00;;
77152;SDS011;66124;51.146;17.072;2023-04-01T02:24:45;3.70;;;2.60;;
77152;SDS011;66124;51.146;17.072;2023-04-01T02:27:16;4.20;;;3.10;;
77152;SDS011;66124;51.146;17.072;2023-04-01T02:29:46;5.00;;;2.90;;
77152;SDS011;66124;51.146;17.072;2023-04-01T02:32:16;5.80;;;3.20;;
77152;SDS011;66124;51.146;17.072;2023-04-01T02:34:47;4.70;;;2.90;;
77152;SDS011;66124;51.146;17.072;2023-04-01T02:37:17;4.30;;;2.70;;
77152;SDS011;66124;51.146;17.072;2023-04-01T02:39:47;2.10;;;1.90;;
77152;SDS011;66124;51.146;17.072;2023-04-01T02:42:16;4.00;;;2.50;;
77152;SDS011;66124;51.146;17.072;2023-04-01T02:44:45;5.30;;;2.40;;
77152;SDS011;66124;51.146;17.072;2023-04-01T02:47:15;3.50;;;2.30;;
77152;SDS011;66124;51.146;17.072;2023-04-01T02:49:44;4.80;;;2.60;;
77152;SDS011;66124;51.146;17.072;2023-04-01T02:52:14;3.40;;;2.90;;
77152;SDS011;66124;51.146;17.072;2023-04-01T02:54:43;5.80;;;3.40;;
77152;SDS011;66124;51.146;17.072;2023-04-01T02:57:12;3.80;;;2.50;;
77152;SDS011;66124;51.146;17.072;2023-04-01T02:59:42;3.50;;;2.20;;
77152;SDS011;66124;51.146;17.072;2023-04-01T03:02:11;2.50;;;1.90;;
77152;SDS011;66124;51.146;17.072;2023-04-01T03:04:41;3.40;;;2.10;;
77152;SDS011;66124;51.146;17.072;2023-04-01T03:07:10;2.90;;;2.10;;
77152;SDS011;66124;51.146;17.072;2023-04-01T03:09:40;4.70;;;2.30;;
77152;SDS011;66124;51.146;17.072;2023-04-01T03:12:09;2.90;;;1.70;;
77152;SDS011;66124;51.146;17.072;2023-04-01T03:17:44;3.40;;;1.50;;
77152;SDS011;66124;51.146;17.072;2023-04-01T03:20:14;3.40;;;1.50;;
77152;SDS011;66124;51.146;17.072;2023-04-01T03:22:44;2.40;;;1.30;;
77152;SDS011;66124;51.146;17.072;2023-04-01T03:25:13;2.20;;;1.70;;
77152;SDS011;66124;51.146;17.072;2023-04-01T03:27:42;2.40;;;1.60;;
77152;SDS011;66124;51.146;17.072;2023-04-01T03:30:13;2.10;;;1.40;;
77152;SDS011;66124;51.146;17.072;2023-04-01T03:32:42;3.90;;;1.90;;
77152;SDS011;66124;51.146;17.072;2023-04-01T03:35:12;2.50;;;1.40;;
77152;SDS011;66124;51.146;17.072;2023-04-01T03:37:41;2.90;;;1.30;;
77152;SDS011;66124;51.146;17.072;2023-04-01T03:40:11;2.10;;;1.40;;
77152;SDS011;66124;51.146;17.072;2023-04-01T03:42:41;2.10;;;1.40;;
77152;SDS011;66124;51.146;17.072;2023-04-01T03:45:11;2.70;;;1.60;;
77152;SDS011;66124;51.146;17.072;2023-04-01T03:47:40;3.00;;;1.70;;
77152;SDS011;66124;51.146;17.072;2023-04-01T03:50:10;2.40;;;1.70;;
77152;SDS011;66124;51.146;17.072;2023-04-01T03:52:39;2.60;;;1.50;;
77152;SDS011;66124;51.146;17.072;2023-04-01T03:55:09;2.70;;;1.70;;
77152;SDS011;66124;51.146;17.072;2023-04-01T03:57:38;2.30;;;1.30;;
77152;SDS011;66124;51.146;17.072;2023-04-01T04:00:09;2.50;;;2.00;;
77152;SDS011;66124;51.146;17.072;2023-04-01T04:02:39;3.00;;;1.80;;
77152;SDS011;66124;51.146;17.072;2023-04-01T04:05:09;2.10;;;1.80;;
77152;SDS011;66124;51.146;17.072;2023-04-01T04:07:38;3.70;;;1.60;;
77152;SDS011;66124;51.146;17.072;2023-04-01T04:10:08;7.10;;;2.30;;
77152;SDS011;66124;51.146;17.072;2023-04-01T04:12:38;2.80;;;1.80;;
77152;SDS011;66124;51.146;17.072;2023-04-01T04:15:08;2.60;;;1.30;;
77152;SDS011;66124;51.146;17.072;2023-04-01T04:17:38;2.80;;;1.60;;
77152;SDS011;66124;51.146;17.072;2023-04-01T04:20:08;2.50;;;1.60;;
77152;SDS011;66124;51.146;17.072;2023-04-01T04:22:38;2.90;;;1.80;;
77152;SDS011;66124;51.146;17.072;2023-04-01T04:25:08;3.30;;;1.30;;
77152;SDS011;66124;51.146;17.072;2023-04-01T04:38:30;3.40;;;1.60;;
77152;SDS011;66124;51.146;17.072;2023-04-01T04:41:00;2.40;;;1.40;;
77152;SDS011;66124;51.146;17.072;2023-04-01T04:43:29;2.60;;;1.60;;
77152;SDS011;66124;51.146;17.072;2023-04-01T04:45:58;2.20;;;1.50;;
77152;SDS011;66124;51.146;17.072;2023-04-01T04:48:31;2.10;;;1.10;;
77152;SDS011;66124;51.146;17.072;2023-04-01T04:51:01;2.90;;;1.70;;
77152;SDS011;66124;51.146;17.072;2023-04-01T04:53:30;3.00;;;1.40;;
77152;SDS011;66124;51.146;17.072;2023-04-01T04:56:00;2.40;;;1.30;;
77152;SDS011;66124;51.146;17.072;2023-04-01T04:58:29;3.20;;;1.80;;
77152;SDS011;66124;51.146;17.072;2023-04-01T05:00:58;3.40;;;1.60;;
77152;SDS011;66124;51.146;17.072;2023-04-01T05:03:32;3.10;;;1.60;;
77152;SDS011;66124;51.146;17.072;2023-04-01T05:06:01;3.30;;;1.70;;
77152;SDS011;66124;51.146;17.072;2023-04-01T05:08:32;2.50;;;1.40;;
77152;SDS011;66124;51.146;17.072;2023-04-01T05:11:02;2.30;;;1.30;;
77152;SDS011;66124;51.146;17.072;2023-04-01T05:13:34;2.30;;;1.50;;
77152;SDS011;66124;51.146;17.072;2023-04-01T05:16:07;2.20;;;1.50;;
77152;SDS011;66124;51.146;17.072;2023-04-01T05:18:37;1.60;;;1.40;;
77152;SDS011;66124;51.146;17.072;2023-04-01T05:21:07;2.30;;;1.60;;
77152;SDS011;66124;51.146;17.072;2023-04-01T05:23:38;2.40;;;1.50;;
77152;SDS011;66124;51.146;17.072;2023-04-01T05:26:09;2.00;;;1.40;;
77152;SDS011;66124;51.146;17.072;2023-04-01T05:28:40;2.30;;;1.60;;
77152;SDS011;66124;51.146;17.072;2023-04-01T05:31:10;2.00;;;1.40;;
77152;SDS011;66124;51.146;17.072;2023-04-01T05:33:39;2.00;;;1.60;;
77152;SDS011;66124;51.146;17.072;2023-04-01T05:36:10;2.00;;;1.30;;
77152;SDS011;66124;51.146;17.072;2023-04-01T05:38:42;1.50;;;1.30;;
77152;SDS011;66124;51.146;17.072;2023-04-01T05:41:11;2.30;;;1.10;;
77152;SDS011;66124;51.146;17.072;2023-04-01T05:43:41;1.20;;;1.00;;
77152;SDS011;66124;51.146;17.072;2023-04-01T05:46:11;2.20;;;1.20;;
77152;SDS011;66124;51.146;17.072;2023-04-01T05:48:40;1.70;;;1.20;;
77152;SDS011;66124;51.146;17.072;2023-04-01T05:57:55;2.40;;;1.60;;
77152;SDS011;66124;51.146;17.072;2023-04-01T06:00:25;3.40;;;1.50;;
77152;SDS011;66124;51.146;17.072;2023-04-01T06:02:54;2.60;;;1.60;;
77152;SDS011;66124;51.146;17.072;2023-04-01T06:05:27;2.40;;;1.50;;
77152;SDS011;66124;51.146;17.072;2023-04-01T06:08:09;3.30;;;1.20;;
77152;SDS011;66124;51.146;17.072;2023-04-01T06:10:43;3.10;;;1.30;;
77152;SDS011;66124;51.146;17.072;2023-04-01T06:13:25;2.90;;;1.60;;
77152;SDS011;66124;51.146;17.072;2023-04-01T06:16:10;3.30;;;1.80;;
77152;SDS011;66124;51.146;17.072;2023-04-01T06:18:51;2.40;;;1.90;;
77152;SDS011;66124;51.146;17.072;2023-04-01T06:21:40;2.80;;;1.70;;
77152;SDS011;66124;51.146;17.072;2023-04-01T06:24:25;1.40;;;1.20;;
77152;SDS011;66124;51.146;17.072;2023-04-01T06:27:07;1.50;;;1.40;;
77152;SDS011;66124;51.146;17.072;2023-04-01T06:29:55;2.80;;;1.80;;
77152;SDS011;66124;51.146;17.072;2023-04-01T06:35:34;2.80;;;1.90;;
77152;SDS011;66124;51.146;17.072;2023-04-01T06:38:33;2.70;;;1.80;;
77152;SDS011;66124;51.146;17.072;2023-04-01T06:41:24;2.80;;;1.30;;
77152;SDS011;66124;51.146;17.072;2023-04-01T06:44:07;2.80;;;1.70;;
77152;SDS011;66124;51.146;17.072;2023-04-01T06:46:47;2.80;;;2.00;;
77152;SDS011;66124;51.146;17.072;2023-04-01T06:49:28;2.50;;;2.20;;
77152;SDS011;66124;51.146;17.072;2023-04-01T06:52:08;3.60;;;1.90;;
77152;SDS011;66124;51.146;17.072;2023-04-01T06:54:47;3.60;;;1.70;;
77152;SDS011;66124;51.146;17.072;2023-04-01T06:57:22;3.80;;;2.10;;
77152;SDS011;66124;51.146;17.072;2023-04-01T06:59:58;3.20;;;2.00;;
77152;SDS011;66124;51.146;17.072;2023-04-01T07:02:34;3.90;;;1.90;;
77152;SDS011;66124;51.146;17.072;2023-04-01T07:05:10;4.10;;;2.60;;
77152;SDS011;66124;51.146;17.072;2023-04-01T07:13:19;4.00;;;2.80;;
77152;SDS011;66124;51.146;17.072;2023-04-01T07:15:56;3.70;;;2.40;;
77152;SDS011;66124;51.146;17.072;2023-04-01T07:18:34;4.40;;;2.30;;
77152;SDS011;66124;51.146;17.072;2023-04-01T07:21:12;3.90;;;2.20;;
77152;SDS011;66124;51.146;17.072;2023-04-01T07:23:49;3.50;;;2.80;;
77152;SDS011;66124;51.146;17.072;2023-04-01T07:26:22;6.10;;;2.80;;
77152;SDS011;66124;51.146;17.072;2023-04-01T07:28:52;3.90;;;2.60;;
77152;SDS011;66124;51.146;17.072;2023-04-01T07:31:29;5.80;;;3.00;;
77152;SDS011;66124;51.146;17.072;2023-04-01T07:34:08;4.10;;;2.30;;
77152;SDS011;66124;51.146;17.072;2023-04-01T07:36:46;3.70;;;2.60;;
77152;SDS011;66124;51.146;17.072;2023-04-01T07:39:24;4.20;;;2.30;;
77152;SDS011;66124;51.146;17.072;2023-04-01T07:42:05;3.50;;;2.20;;
77152;SDS011;66124;51.146;17.072;2023-04-01T07:44:44;3.90;;;2.30;;
77152;SDS011;66124;51.146;17.072;2023-04-01T07:47:25;3.70;;;2.40;;
77152;SDS011;66124;51.146;17.072;2023-04-01T07:50:05;4.40;;;2.70;;
77152;SDS011;66124;51.146;17.072;2023-04-01T07:52:49;3.50;;;2.50;;
77152;SDS011;66124;51.146;17.072;2023-04-01T07:55:26;3.50;;;2.30;;
77152;SDS011;66124;51.146;17.072;2023-04-01T07:58:02;4.30;;;2.60;;
77152;SDS011;66124;51.146;17.072;2023-04-01T08:00:39;3.20;;;2.60;;
77152;SDS011;66124;51.146;17.072;2023-04-01T08:03:19;4.40;;;2.30;;
77152;SDS011;66124;51.146;17.072;2023-04-01T08:05:59;3.90;;;2.60;;
77152;SDS011;66124;51.146;17.072;2023-04-01T08:08:39;4.60;;;2.90;;
77152;SDS011;66124;51.146;17.072;2023-04-01T08:11:21;2.40;;;2.20;;
77152;SDS011;66124;51.146;17.072;2023-04-01T08:14:01;4.40;;;2.50;;
77152;SDS011;66124;51.146;17.072;2023-04-01T08:16:41;3.60;;;2.30;;
77152;SDS011;66124;51.146;17.072;2023-04-01T08:19:18;5.20;;;2.60;;
77152;SDS011;66124;51.146;17.072;2023-04-01T08:21:57;3.20;;;2.00;;
77152;SDS011;66124;51.146;17.072;2023-04-01T08:33:15;3.60;;;2.40;;
77152;SDS011;66124;51.146;17.072;2023-04-01T08:35:50;3.60;;;2.60;;
77152;SDS011;66124;51.146;17.072;2023-04-01T08:38:23;7.00;;;2.90;;
77152;SDS011;66124;51.146;17.072;2023-04-01T08:41:02;4.60;;;2.70;;
77152;SDS011;66124;51.146;17.072;2023-04-01T08:43:47;2.80;;;2.50;;
77152;SDS011;66124;51.146;17.072;2023-04-01T08:46:34;2.90;;;2.30;;
77152;SDS011;66124;51.146;17.072;2023-04-01T08:49:23;4.00;;;2.80;;
77152;SDS011;66124;51.146;17.072;2023-04-01T08:52:21;3.00;;;2.70;;
77152;SDS011;66124;51.146;17.072;2023-04-01T08:55:02;4.10;;;2.10;;
77152;SDS011;66124;51.146;17.072;2023-04-01T08:57:49;3.20;;;2.80;;
77152;SDS011;66124;51.146;17.072;2023-04-01T09:00:32;4.60;;;2.60;;
77152;SDS011;66124;51.146;17.072;2023-04-01T09:03:13;3.50;;;2.30;;
77152;SDS011;66124;51.146;17.072;2023-04-01T09:09:13;2.50;;;2.20;;
77152;SDS011;66124;51.146;17.072;2023-04-01T09:12:22;4.10;;;2.10;;
77152;SDS011;66124;51.146;17.072;2023-04-01T09:21:03;3.70;;;1.90;;
77152;SDS011;66124;51.146;17.072;2023-04-01T09:26:29;3.20;;;2.10;;
77152;SDS011;66124;51.146;17.072;2023-04-01T09:29:21;2.00;;;1.50;;
77152;SDS011;66124;51.146;17.072;2023-04-01T09:32:12;4.00;;;2.20;;
77152;SDS011;66124;51.146;17.072;2023-04-01T09:34:58;4.10;;;2.20;;
77152;SDS011;66124;51.146;17.072;2023-04-01T09:37:47;3.30;;;2.30;;
77152;SDS011;66124;51.146;17.072;2023-04-01T09:40:29;3.30;;;2.20;;
77152;SDS011;66124;51.146;17.072;2023-04-01T09:54:05;3.20;;;2.30;;
77152;SDS011;66124;51.146;17.072;2023-04-01T10:05:59;2.80;;;1.70;;
77152;SDS011;66124;51.146;17.072;2023-04-01T10:15:29;4.60;;;2.00;;
77152;SDS011;66124;51.146;17.072;2023-04-01T10:27:35;1.30;;;0.60;;
77152;SDS011;66124;51.146;17.072;2023-04-01T10:33:49;0.30;;;0.30;;
77152;SDS011;66124;51.146;17.072;2023-04-01T10:36:54;0.50;;;0.50;;
77152;SDS011;66124;51.146;17.072;2023-04-01T10:48:50;1.30;;;0.70;;
77152;SDS011;66124;51.146;17.072;2023-04-01T10:54:47;1.20;;;0.80;;
77152;SDS011;66124;51.146;17.072;2023-04-01T10:57:34;1.00;;;0.60;;
77152;SDS011;66124;51.146;17.072;2023-04-01T11:00:20;1.30;;;0.80;;
77152;SDS011;66124;51.146;17.072;2023-04-01T11:03:18;0.60;;;0.40;;
77152;SDS011;66124;51.146;17.072;2023-04-01T11:09:36;1.20;;;0.80;;
77152;SDS011;66124;51.146;17.072;2023-04-01T11:12:35;0.70;;;0.60;;
77152;SDS011;66124;51.146;17.072;2023-04-01T11:15:32;2.00;;;1.00;;
77152;SDS011;66124;51.146;17.072;2023-04-01T11:24:07;2.60;;;1.30;;
77152;SDS011;66124;51.146;17.072;2023-04-01T11:26:55;1.40;;;1.00;;
77152;SDS011;66124;51.146;17.072;2023-04-01T11:29:41;1.60;;;1.00;;
77152;SDS011;66124;51.146;17.072;2023-04-01T11:32:27;1.80;;;0.80;;
77152;SDS011;66124;51.146;17.072;2023-04-01T11:35:25;1.60;;;1.30;;
77152;SDS011;66124;51.146;17.072;2023-04-01T11:38:24;0.70;;;0.70;;
77152;SDS011;66124;51.146;17.072;2023-04-01T11:41:05;1.10;;;0.80;;
77152;SDS011;66124;51.146;17.072;2023-04-01T11:43:48;0.60;;;0.60;;
77152;SDS011;66124;51.146;17.072;2023-04-01T11:46:31;1.00;;;0.70;;
77152;SDS011;66124;51.146;17.072;2023-04-01T11:49:07;0.50;;;0.50;;
77152;SDS011;66124;51.146;17.072;2023-04-01T11:51:55;0.50;;;0.50;;
77152;SDS011;66124;51.146;17.072;2023-04-01T11:54:36;0.90;;;0.70;;
77152;SDS011;66124;51.146;17.072;2023-04-01T11:57:26;0.90;;;0.70;;
77152;SDS011;66124;51.146;17.072;2023-04-01T12:00:19;0.70;;;0.70;;
77152;SDS011;66124;51.146;17.072;2023-04-01T12:03:14;0.70;;;0.60;;
77152;SDS011;66124;51.146;17.072;2023-04-01T12:05:58;0.90;;;0.80;;
77152;SDS011;66124;51.146;17.072;2023-04-01T12:11:12;1.50;;;0.80;;
77152;SDS011;66124;51.146;17.072;2023-04-01T12:13:51;1.20;;;1.00;;
77152;SDS011;66124;51.146;17.072;2023-04-01T12:16:35;1.00;;;0.80;;
77152;SDS011;66124;51.146;17.072;2023-04-01T12:19:17;1.00;;;0.60;;
77152;SDS011;66124;51.146;17.072;2023-04-01T12:28:05;0.60;;;0.50;;
77152;SDS011;66124;51.146;17.072;2023-04-01T12:30:49;1.00;;;0.40;;
77152;SDS011;66124;51.146;17.072;2023-04-01T12:39:21;1.20;;;0.50;;
77152;SDS011;66124;51.146;17.072;2023-04-01T12:42:04;0.80;;;0.50;;
77152;SDS011;66124;51.146;17.072;2023-04-01T12:44:43;0.40;;;0.40;;
77152;SDS011;66124;51.146;17.072;2023-04-01T12:50:36;1.20;;;0.60;;
77152;SDS011;66124;51.146;17.072;2023-04-01T12:53:25;1.20;;;0.60;;
77152;SDS011;66124;51.146;17.072;2023-04-01T12:56:09;0.50;;;0.50;;
77152;SDS011;66124;51.146;17.072;2023-04-01T12:58:53;0.80;;;0.50;;
77152;SDS011;66124;51.146;17.072;2023-04-01T13:10:46;1.10;;;0.60;;
77152;SDS011;66124;51.146;17.072;2023-04-01T13:16:34;1.20;;;0.80;;
77152;SDS011;66124;51.146;17.072;2023-04-01T13:19:08;0.70;;;0.70;;
77152;SDS011;66124;51.146;17.072;2023-04-01T13:24:23;0.70;;;0.60;;
77152;SDS011;66124;51.146;17.072;2023-04-01T13:27:00;1.60;;;0.90;;
77152;SDS011;66124;51.146;17.072;2023-04-01T13:29:36;0.60;;;0.60;;
77152;SDS011;66124;51.146;17.072;2023-04-01T13:32:13;0.80;;;0.70;;
77152;SDS011;66124;51.146;17.072;2023-04-01T13:34:55;0.70;;;0.60;;
77152;SDS011;66124;51.146;17.072;2023-04-01T13:37:39;1.40;;;0.50;;
77152;SDS011;66124;51.146;17.072;2023-04-01T13:50:35;1.10;;;0.80;;
77152;SDS011;66124;51.146;17.072;2023-04-01T13:53:29;1.60;;;1.20;;
77152;SDS011;66124;51.146;17.072;2023-04-01T13:56:16;1.40;;;0.90;;
77152;SDS011;66124;51.146;17.072;2023-04-01T13:59:05;2.20;;;1.30;;
77152;SDS011;66124;51.146;17.072;2023-04-01T14:01:53;2.10;;;1.10;;
77152;SDS011;66124;51.146;17.072;2023-04-01T14:04:42;2.50;;;1.20;;
77152;SDS011;66124;51.146;17.072;2023-04-01T14:07:26;1.80;;;1.10;;
77152;SDS011;66124;51.146;17.072;2023-04-01T14:10:09;2.50;;;1.10;;
77152;SDS011;66124;51.146;17.072;2023-04-01T14:12:55;2.00;;;1.00;;
77152;SDS011;66124;51.146;17.072;2023-04-01T14:15:41;1.20;;;1.00;;
77152;SDS011;66124;51.146;17.072;2023-04-01T14:18:21;1.40;;;1.10;;
77152;SDS011;66124;51.146;17.072;2023-04-01T14:21:26;1.10;;;1.00;;
77152;SDS011;66124;51.146;17.072;2023-04-01T14:24:16;1.60;;;1.10;;
77152;SDS011;66124;51.146;17.072;2023-04-01T14:26:57;1.50;;;1.00;;
77152;SDS011;66124;51.146;17.072;2023-04-01T14:29:37;1.80;;;1.00;;
77152;SDS011;66124;51.146;17.072;2023-04-01T14:32:18;2.50;;;1.10;;
77152;SDS011;66124;51.146;17.072;2023-04-01T14:35:05;1.80;;;1.00;;
77152;SDS011;66124;51.146;17.072;2023-04-01T14:37:55;1.80;;;1.30;;
77152;SDS011;66124;51.146;17.072;2023-04-01T14:40:56;1.30;;;1.10;;
77152;SDS011;66124;51.146;17.072;2023-04-01T14:43:33;1.50;;;1.20;;
77152;SDS011;66124;51.146;17.072;2023-04-01T14:46:16;1.60;;;1.40;;
77152;SDS011;66124;51.146;17.072;2023-04-01T14:48:59;1.70;;;1.10;;
77152;SDS011;66124;51.146;17.072;2023-04-01T14:51:32;1.60;;;1.30;;
77152;SDS011;66124;51.146;17.072;2023-04-01T14:54:06;1.40;;;1.20;;
77152;SDS011;66124;51.146;17.072;2023-04-01T14:56:42;1.00;;;0.90;;
77152;SDS011;66124;51.146;17.072;2023-04-01T14:59:17;2.10;;;1.20;;
77152;SDS011;66124;51.146;17.072;2023-04-01T15:07:39;3.40;;;1.50;;
77152;SDS011;66124;51.146;17.072;2023-04-01T15:10:38;5.60;;;2.30;;
77152;SDS011;66124;51.146;17.072;2023-04-01T15:13:20;3.90;;;2.50;;
77152;SDS011;66124;51.146;17.072;2023-04-01T15:16:06;7.00;;;4.10;;
77152;SDS011;66124;51.146;17.072;2023-04-01T15:18:44;7.00;;;3.60;;
77152;SDS011;66124;51.146;17.072;2023-04-01T15:21:27;6.20;;;3.70;;
77152;SDS011;66124;51.146;17.072;2023-04-01T15:24:18;5.60;;;3.50;;
77152;SDS011;66124;51.146;17.072;2023-04-01T15:26:57;6.10;;;3.50;;
77152;SDS011;66124;51.146;17.072;2023-04-01T15:29:58;4.30;;;2.60;;
77152;SDS011;66124;51.146;17.072;2023-04-01T15:32:46;4.20;;;2.50;;
77152;SDS011;66124;51.146;17.072;2023-04-01T15:35:27;3.20;;;2.30;;
77152;SDS011;66124;51.146;17.072;2023-04-01T15:38:08;3.40;;;2.00;;
77152;SDS011;66124;51.146;17.072;2023-04-01T15:40:53;4.30;;;2.50;;
77152;SDS011;66124;51.146;17.072;2023-04-01T15:43:30;4.00;;;3.10;;
77152;SDS011;66124;51.146;17.072;2023-04-01T15:46:26;4.10;;;2.70;;
77152;SDS011;66124;51.146;17.072;2023-04-01T15:49:13;4.00;;;2.90;;
77152;SDS011;66124;51.146;17.072;2023-04-01T15:51:51;5.60;;;2.80;;
77152;SDS011;66124;51.146;17.072;2023-04-01T15:54:30;4.60;;;2.90;;
77152;SDS011;66124;51.146;17.072;2023-04-01T15:57:20;5.10;;;3.10;;
77152;SDS011;66124;51.146;17.072;2023-04-01T16:02:47;6.10;;;3.50;;
77152;SDS011;66124;51.146;17.072;2023-04-01T16:05:27;5.40;;;4.20;;
77152;SDS011;66124;51.146;17.072;2023-04-01T16:08:14;7.70;;;4.20;;
77152;SDS011;66124;51.146;17.072;2023-04-01T16:10:59;6.60;;;4.30;;
77152;SDS011;66124;51.146;17.072;2023-04-01T16:13:41;6.30;;;4.60;;
77152;SDS011;66124;51.146;17.072;2023-04-01T16:16:19;7.30;;;4.70;;
77152;SDS011;66124;51.146;17.072;2023-04-01T16:24:14;8.30;;;5.50;;
77152;SDS011;66124;51.146;17.072;2023-04-01T16:26:52;7.40;;;5.40;;
77152;SDS011;66124;51.146;17.072;2023-04-01T16:29:30;7.10;;;5.10;;
77152;SDS011;66124;51.146;17.072;2023-04-01T16:32:13;7.20;;;5.00;;
77152;SDS011;66124;51.146;17.072;2023-04-01T16:34:54;7.80;;;5.00;;
77152;SDS011;66124;51.146;17.072;2023-04-01T16:37:34;9.10;;;5.40;;
77152;SDS011;66124;51.146;17.072;2023-04-01T16:40:13;7.20;;;5.50;;
77152;SDS011;66124;51.146;17.072;2023-04-01T16:42:51;10.00;;;5.50;;
77152;SDS011;66124;51.146;17.072;2023-04-01T16:45:29;8.90;;;5.40;;
77152;SDS011;66124;51.146;17.072;2023-04-01T16:48:07;8.80;;;5.60;;
77152;SDS011;66124;51.146;17.072;2023-04-01T16:50:43;10.40;;;6.50;;
77152;SDS011;66124;51.146;17.072;2023-04-01T16:53:24;12.60;;;7.30;;
77152;SDS011;66124;51.146;17.072;2023-04-01T16:56:10;12.70;;;7.70;;
77152;SDS011;66124;51.146;17.072;2023-04-01T16:58:57;12.40;;;7.60;;
77152;SDS011;66124;51.146;17.072;2023-04-01T17:01:31;12.20;;;8.30;;
77152;SDS011;66124;51.146;17.072;2023-04-01T17:04:12;11.50;;;7.00;;
77152;SDS011;66124;51.146;17.072;2023-04-01T17:06:48;9.10;;;6.00;;
77152;SDS011;66124;51.146;17.072;2023-04-01T17:09:23;11.30;;;7.70;;
77152;SDS011;66124;51.146;17.072;2023-04-01T17:12:05;10.80;;;6.50;;
77152;SDS011;66124;51.146;17.072;2023-04-01T17:14:43;10.60;;;7.00;;
77152;SDS011;66124;51.146;17.072;2023-04-01T17:17:23;11.50;;;7.30;;
77152;SDS011;66124;51.146;17.072;2023-04-01T17:20:05;11.90;;;7.80;;
77152;SDS011;66124;51.146;17.072;2023-04-01T17:22:41;13.50;;;7.80;;
77152;SDS011;66124;51.146;17.072;2023-04-01T17:25:20;14.30;;;9.40;;
77152;SDS011;66124;51.146;17.072;2023-04-01T17:28:05;14.70;;;9.20;;
77152;SDS011;66124;51.146;17.072;2023-04-01T17:30:47;17.40;;;9.50;;
77152;SDS011;66124;51.146;17.072;2023-04-01T17:33:27;12.20;;;6.60;;
77152;SDS011;66124;51.146;17.072;2023-04-01T17:43:57;15.10;;;9.20;;
77152;SDS011;66124;51.146;17.072;2023-04-01T17:46:35;15.10;;;7.90;;
77152;SDS011;66124;51.146;17.072;2023-04-01T17:49:16;14.80;;;8.70;;
77152;SDS011;66124;51.146;17.072;2023-04-01T17:51:55;14.40;;;8.90;;
77152;SDS011;66124;51.146;17.072;2023-04-01T17:54:34;15.10;;;8.10;;
77152;SDS011;66124;51.146;17.072;2023-04-01T17:57:23;17.40;;;8.80;;
77152;SDS011;66124;51.146;17.072;2023-04-01T18:00:14;15.50;;;8.70;;
77152;SDS011;66124;51.146;17.072;2023-04-01T18:02:54;15.40;;;8.60;;
77152;SDS011;66124;51.146;17.072;2023-04-01T18:05:36;18.70;;;10.20;;
77152;SDS011;66124;51.146;17.072;2023-04-01T18:08:19;17.80;;;8.80;;
77152;SDS011;66124;51.146;17.072;2023-04-01T18:13:44;18.00;;;9.10;;
77152;SDS011;66124;51.146;17.072;2023-04-01T18:16:26;16.60;;;9.40;;
77152;SDS011;66124;51.146;17.072;2023-04-01T18:19:08;15.20;;;8.20;;
77152;SDS011;66124;51.146;17.072;2023-04-01T18:21:45;16.70;;;9.30;;
77152;SDS011;66124;51.146;17.072;2023-04-01T18:24:21;20.00;;;9.90;;
77152;SDS011;66124;51.146;17.072;2023-04-01T18:27:00;17.10;;;8.60;;
77152;SDS011;66124;51.146;17.072;2023-04-01T18:29:34;18.80;;;9.80;;
77152;SDS011;66124;51.146;17.072;2023-04-01T18:32:15;18.40;;;10.20;;
77152;SDS011;66124;51.146;17.072;2023-04-01T18:34:55;18.70;;;9.70;;
77152;SDS011;66124;51.146;17.072;2023-04-01T18:37:32;17.60;;;9.40;;
77152;SDS011;66124;51.146;17.072;2023-04-01T18:40:12;20.90;;;10.20;;
77152;SDS011;66124;51.146;17.072;2023-04-01T18:42:50;19.90;;;11.20;;
77152;SDS011;66124;51.146;17.072;2023-04-01T18:45:28;19.40;;;10.40;;
77152;SDS011;66124;51.146;17.072;2023-04-01T18:48:06;17.20;;;9.40;;
77152;SDS011;66124;51.146;17.072;2023-04-01T18:50:43;13.90;;;8.00;;
77152;SDS011;66124;51.146;17.072;2023-04-01T18:53:21;18.80;;;9.00;;
77152;SDS011;66124;51.146;17.072;2023-04-01T19:02:43;17.90;;;9.60;;
77152;SDS011;66124;51.146;17.072;2023-04-01T19:05:18;19.20;;;10.10;;
77152;SDS011;66124;51.146;17.072;2023-04-01T19:07:54;21.00;;;11.60;;
77152;SDS011;66124;51.146;17.072;2023-04-01T19:10:40;21.30;;;11.30;;
77152;SDS011;66124;51.146;17.072;2023-04-01T19:13:17;19.70;;;10.90;;